Time;durP1;ratioP1;P1;durP2;ratioP2;P2;SDS_P1;SDS_P2;PMS_P1;PMS_P2;Temp;Humidity;BMP_temperature;BMP_pressure;BME280_temperature;BME280_humidity;BME280_pressure;Samples;Min_cycle;Max_cycle;Signal;HPM_P1;HPM_P2
2020/12/03 00:02:25;;;;;;;36.97;22.50;;;0.60;99.90;;;;;;5013249;28;20664;-43
2020/12/03 00:04:53;;;;;;;37.47;22.27;;;0.60;99.90;;;;;;5013221;28;20205;-43
2020/12/03 00:07:23;;;;;;;37.37;23.93;;;0.60;99.90;;;;;;5013113;28;20312;-45
2020/12/03 00:09:50;;;;;;;39.30;22.50;;;0.60;99.90;;;;;;5013364;28;20210;-44
2020/12/03 00:12:20;;;;;;;36.63;20.20;;;0.50;99.90;;;;;;5013494;28;20211;-43
2020/12/03 00:14:48;;;;;;;36.47;22.03;;;0.60;99.90;;;;;;5013020;28;20635;-42
2020/12/03 00:17:15;;;;;;;30.40;19.63;;;0.50;99.90;;;;;;5013225;28;20296;-42
2020/12/03 00:19:41;;;;;;;29.97;19.97;;;0.50;99.90;;;;;;5013101;28;20223;-42
2020/12/03 00:22:09;;;;;;;29.20;19.47;;;0.50;99.90;;;;;;5013134;28;20232;-43
2020/12/03 00:24:36;;;;;;;32.47;20.73;;;0.50;99.90;;;;;;5012899;28;20291;-42
2020/12/03 00:27:08;;;;;;;32.80;18.20;;;0.40;99.90;;;;;;5013223;28;20233;-43
2020/12/03 00:29:35;;;;;;;31.43;19.93;;;0.40;99.90;;;;;;5013120;28;20292;-42
2020/12/03 00:32:04;;;;;;;32.50;19.10;;;0.40;99.90;;;;;;5012275;28;20571;-42
2020/12/03 00:34:31;;;;;;;33.17;18.80;;;0.40;99.90;;;;;;5012967;28;20296;-42
2020/12/03 00:36:59;;;;;;;30.00;18.87;;;0.30;99.90;;;;;;5012729;28;20580;-43
2020/12/03 00:39:26;;;;;;;29.77;18.20;;;0.30;99.90;;;;;;5012809;28;20211;-42
2020/12/03 00:41:55;;;;;;;30.93;17.33;;;0.30;99.90;;;;;;5012849;28;20300;-43
2020/12/03 00:44:23;;;;;;;26.50;15.40;;;0.30;99.90;;;;;;5012935;28;20245;-43
2020/12/03 00:46:51;;;;;;;29.33;18.23;;;0.40;99.90;;;;;;5012636;28;20236;-43
2020/12/03 00:49:19;;;;;;;28.50;18.50;;;0.40;99.90;;;;;;5012494;28;20209;-43
2020/12/03 00:51:48;;;;;;;32.63;18.47;;;0.40;99.90;;;;;;5012597;28;20618;-42
2020/12/03 00:54:15;;;;;;;28.30;17.20;;;0.50;99.90;;;;;;5012480;28;20696;-42
2020/12/03 00:56:42;;;;;;;30.60;17.17;;;0.40;99.90;;;;;;5012407;28;20212;-44
2020/12/03 00:59:09;;;;;;;28.30;18.30;;;0.50;99.90;;;;;;5012658;28;20684;-43
2020/12/03 01:01:36;;;;;;;26.07;16.40;;;0.50;99.90;;;;;;5012533;28;20219;-42
2020/12/03 01:04:03;;;;;;;27.77;17.07;;;0.50;99.90;;;;;;5012394;28;20275;-43
2020/12/03 01:06:31;;;;;;;23.70;16.77;;;0.50;99.90;;;;;;5012731;28;20305;-42
2020/12/03 01:08:58;;;;;;;27.93;17.37;;;0.60;99.90;;;;;;5012747;28;20304;-42
2020/12/03 01:11:25;;;;;;;29.00;18.40;;;0.60;99.90;;;;;;5012317;28;20676;-42
2020/12/03 01:13:52;;;;;;;30.40;17.63;;;0.60;99.90;;;;;;5012591;28;20321;-42
2020/12/03 01:16:21;;;;;;;30.60;18.63;;;0.60;99.90;;;;;;5012411;28;20217;-42
2020/12/03 01:18:48;;;;;;;29.70;17.60;;;0.70;99.90;;;;;;5012262;28;20616;-43
2020/12/03 01:21:18;;;;;;;30.40;17.93;;;0.70;99.90;;;;;;5012363;28;20387;-44
2020/12/03 01:23:46;;;;;;;30.97;18.10;;;0.70;99.90;;;;;;5012464;28;20213;-44
2020/12/03 01:26:15;;;;;;;28.90;17.37;;;0.80;99.90;;;;;;5012011;28;20217;-45
2020/12/03 01:28:43;;;;;;;31.03;18.90;;;0.80;99.90;;;;;;5012179;28;20295;-44
2020/12/03 01:31:11;;;;;;;30.07;18.33;;;0.80;99.90;;;;;;5012149;28;20292;-46
2020/12/03 01:33:38;;;;;;;28.60;17.17;;;0.80;99.90;;;;;;5012400;28;20232;-42
2020/12/03 01:36:05;;;;;;;27.83;17.48;;;0.80;99.90;;;;;;5012363;28;20216;-42
2020/12/03 01:38:32;;;;;;;28.93;18.80;;;0.70;99.90;;;;;;5012057;28;20240;-43
2020/12/03 01:41:00;;;;;;;30.70;17.90;;;0.70;99.90;;;;;;5012034;28;20237;-42
2020/12/03 01:43:27;;;;;;;26.90;16.93;;;0.70;99.90;;;;;;5013383;28;20213;-41
2020/12/03 01:45:57;;;;;;;30.70;18.00;;;0.80;99.90;;;;;;5015961;28;20300;-42
2020/12/03 01:48:41;;;;;;;29.37;18.00;;;0.80;99.90;;;;;;5016178;28;20237;-43
2020/12/03 01:51:14;;;;;;;29.50;18.80;;;0.80;99.90;;;;;;5016059;28;20296;-42
2020/12/03 01:53:42;;;;;;;31.80;19.80;;;0.80;99.90;;;;;;5015927;28;20205;-42
2020/12/03 01:56:26;;;;;;;33.63;19.93;;;0.70;99.90;;;;;;5015813;28;20558;-42
2020/12/03 01:58:56;;;;;;;29.33;17.67;;;0.70;99.90;;;;;;5016198;28;20295;-43
2020/12/03 02:01:23;;;;;;;31.23;18.47;;;0.70;99.90;;;;;;5015813;28;20671;-42
2020/12/03 02:03:51;;;;;;;28.93;19.23;;;0.70;99.90;;;;;;5016048;28;20552;-42
2020/12/03 02:06:19;;;;;;;28.87;18.83;;;0.70;99.90;;;;;;5015729;28;20298;-42
2020/12/03 02:08:47;;;;;;;30.80;18.27;;;0.70;99.90;;;;;;5015375;28;20229;-42
2020/12/03 02:11:14;;;;;;;28.97;19.60;;;0.70;99.90;;;;;;5015790;28;20296;-42
2020/12/03 02:13:52;;;;;;;31.83;19.70;;;0.70;99.90;;;;;;5015665;28;20213;-44
2020/12/03 02:16:19;;;;;;;31.17;17.93;;;0.70;99.90;;;;;;5015634;28;20213;-43
2020/12/03 02:18:47;;;;;;;27.57;18.13;;;0.70;99.90;;;;;;5015420;28;20264;-44
2020/12/03 02:21:16;;;;;;;33.53;18.40;;;0.70;99.90;;;;;;5015362;28;20293;-41
2020/12/03 02:23:44;;;;;;;28.07;17.77;;;0.80;99.90;;;;;;5015546;28;20301;-42
2020/12/03 02:26:12;;;;;;;30.47;18.87;;;0.70;99.90;;;;;;5015385;28;20308;-42
2020/12/03 02:28:39;;;;;;;31.07;19.57;;;0.80;99.90;;;;;;5015058;28;20786;-42
2020/12/03 02:31:06;;;;;;;30.30;19.23;;;0.70;99.90;;;;;;5015252;28;20238;-41
2020/12/03 02:33:34;;;;;;;29.53;18.70;;;0.70;99.90;;;;;;5015193;28;20213;-42
2020/12/03 02:36:01;;;;;;;29.40;19.53;;;0.70;99.90;;;;;;5015454;28;20304;-44
2020/12/03 02:38:29;;;;;;;33.07;18.97;;;0.70;99.90;;;;;;5015180;28;20209;-43
2020/12/03 02:40:57;;;;;;;30.80;19.23;;;0.70;99.90;;;;;;5014949;28;20568;-42
2020/12/03 02:43:25;;;;;;;29.57;19.70;;;0.70;99.90;;;;;;5014979;28;20205;-44
2020/12/03 02:45:52;;;;;;;29.63;19.23;;;0.80;99.90;;;;;;5015006;28;20245;-42
2020/12/03 02:48:19;;;;;;;31.13;19.20;;;0.80;99.90;;;;;;5014872;28;20633;-42
2020/12/03 02:50:47;;;;;;;29.23;18.20;;;0.80;99.90;;;;;;5014863;28;20349;-43
2020/12/03 02:53:14;;;;;;;31.90;19.40;;;0.80;99.90;;;;;;5014825;28;20249;-43
2020/12/03 02:55:42;;;;;;;28.30;19.07;;;0.70;99.90;;;;;;5013881;28;20672;-43
2020/12/03 02:58:09;;;;;;;35.40;20.83;;;0.70;99.90;;;;;;5014655;28;20296;-42
2020/12/03 03:00:36;;;;;;;31.97;19.63;;;0.80;99.90;;;;;;5014534;28;20209;-42
2020/12/03 03:03:03;;;;;;;33.23;20.30;;;0.80;99.90;;;;;;5014554;28;20211;-42
2020/12/03 03:05:33;;;;;;;30.73;19.03;;;0.80;99.90;;;;;;5014631;28;20296;-42
2020/12/03 03:07:59;;;;;;;32.27;19.47;;;0.80;99.90;;;;;;5014462;28;20563;-44
2020/12/03 03:10:26;;;;;;;30.77;20.10;;;0.80;99.90;;;;;;5014700;28;20297;-42
2020/12/03 03:12:54;;;;;;;38.73;20.70;;;0.80;99.90;;;;;;5014395;28;20225;-44
2020/12/03 03:15:21;;;;;;;32.10;20.37;;;0.80;99.90;;;;;;5014259;28;20395;-42
2020/12/03 03:17:48;;;;;;;35.83;22.00;;;0.90;99.90;;;;;;5014457;28;20292;-43
2020/12/03 03:20:15;;;;;;;33.50;20.07;;;0.90;99.90;;;;;;5014144;28;20659;-43
2020/12/03 03:22:42;;;;;;;36.23;20.70;;;0.90;99.90;;;;;;5014249;28;20213;-42
2020/12/03 03:25:09;;;;;;;31.87;19.50;;;1.00;99.90;;;;;;5014064;28;20751;-43
2020/12/03 03:27:37;;;;;;;34.37;21.00;;;1.00;99.90;;;;;;5014006;28;20230;-44
2020/12/03 03:30:06;;;;;;;35.97;20.20;;;1.00;99.90;;;;;;5014104;28;20241;-42
2020/12/03 03:32:34;;;;;;;33.53;20.13;;;0.90;99.90;;;;;;5013960;28;20209;-42
2020/12/03 03:35:01;;;;;;;36.33;20.10;;;0.90;99.90;;;;;;5014109;28;20691;-44
2020/12/03 03:37:28;;;;;;;32.03;20.60;;;0.80;99.90;;;;;;5013866;28;20292;-42
2020/12/03 03:39:55;;;;;;;35.70;22.27;;;0.80;99.90;;;;;;5013512;28;20647;-42
2020/12/03 03:42:22;;;;;;;34.77;20.00;;;0.80;99.90;;;;;;5013773;28;20308;-42
2020/12/03 03:44:49;;;;;;;33.67;20.97;;;0.90;99.90;;;;;;5013678;28;20230;-43
2020/12/03 03:47:17;;;;;;;36.03;21.83;;;1.00;99.90;;;;;;5013337;28;20619;-42
2020/12/03 03:49:44;;;;;;;32.37;20.50;;;1.10;99.90;;;;;;5013804;28;20292;-43
2020/12/03 03:52:11;;;;;;;30.67;20.50;;;1.10;99.90;;;;;;5013693;28;20304;-43
2020/12/03 03:54:38;;;;;;;33.77;21.33;;;1.20;99.90;;;;;;5013533;28;20336;-41
2020/12/03 03:57:05;;;;;;;33.53;20.17;;;1.20;99.90;;;;;;5013457;28;20312;-44
2020/12/03 03:59:32;;;;;;;33.37;20.17;;;1.20;99.90;;;;;;5013574;28;20816;-42
2020/12/03 04:01:59;;;;;;;34.47;21.80;;;1.20;99.90;;;;;;5013523;28;20236;-44
2020/12/03 04:04:27;;;;;;;34.40;20.03;;;1.10;99.90;;;;;;5013519;28;20248;-43
2020/12/03 04:06:53;;;;;;;36.20;21.80;;;1.10;99.90;;;;;;5013357;28;20299;-42
2020/12/03 04:09:20;;;;;;;38.10;21.57;;;1.10;99.90;;;;;;5013210;28;20209;-42
2020/12/03 04:11:48;;;;;;;37.90;22.43;;;1.10;99.90;;;;;;5013203;28;20213;-43
2020/12/03 04:14:15;;;;;;;34.60;21.70;;;1.20;99.90;;;;;;5014441;28;20260;-44
2020/12/03 04:16:42;;;;;;;37.20;22.03;;;1.20;99.90;;;;;;5013311;28;20217;-43
2020/12/03 04:19:09;;;;;;;38.53;22.83;;;1.20;99.90;;;;;;5013257;28;20220;-44
2020/12/03 04:21:37;;;;;;;36.93;22.33;;;1.20;99.90;;;;;;5013055;28;20228;-42
2020/12/03 04:24:04;;;;;;;37.40;22.90;;;1.20;99.90;;;;;;5013035;28;20308;-42
2020/12/03 04:26:31;;;;;;;39.37;22.60;;;1.30;99.90;;;;;;5013040;28;20703;-42
2020/12/03 04:28:58;;;;;;;37.87;21.30;;;1.30;99.90;;;;;;5013087;28;20241;-42
2020/12/03 04:31:25;;;;;;;35.13;21.07;;;1.40;99.90;;;;;;5012863;28;20304;-42
2020/12/03 04:33:52;;;;;;;43.00;23.53;;;1.50;99.90;;;;;;5013028;28;20209;-42
2020/12/03 04:36:20;;;;;;;34.80;20.50;;;1.50;99.90;;;;;;5012862;28;20446;-48
2020/12/03 04:38:47;;;;;;;40.83;23.17;;;1.50;99.90;;;;;;5012752;28;20233;-42
2020/12/03 04:41:16;;;;;;;39.87;23.77;;;1.50;99.90;;;;;;5012624;28;20285;-41
2020/12/03 04:43:46;;;;;;;36.00;22.83;;;1.40;99.90;;;;;;5012587;28;20759;-42
2020/12/03 04:46:25;;;;;;;37.30;22.80;;;1.40;99.90;;;;;;5012988;28;20251;-42
2020/12/03 04:49:26;;;;;;;39.90;23.63;;;1.40;99.90;;;;;;5012514;28;20229;-44
2020/12/03 04:52:27;;;;;;;35.03;21.27;;;1.40;99.90;;;;;;5008337;28;20304;-43
2020/12/03 04:55:06;;;;;;;31.40;20.60;;;1.40;99.90;;;;;;5012619;28;20213;-42
2020/12/03 04:57:40;;;;;;;38.17;22.30;;;1.40;99.90;;;;;;5012320;28;20201;-44
2020/12/03 05:00:17;;;;;;;67.90;44.97;;;1.50;99.90;;;;;;5012510;28;20322;-41
2020/12/03 05:03:10;;;;;;;39.97;23.50;;;1.50;99.90;;;;;;5012568;28;20214;-43
2020/12/03 05:05:42;;;;;;;41.87;23.03;;;1.60;99.90;;;;;;5009654;28;20279;-42
2020/12/03 05:08:12;;;;;;;39.83;23.93;;;1.50;99.90;;;;;;5012474;28;20256;-41
2020/12/03 05:10:44;;;;;;;88.27;49.50;;;1.40;99.90;;;;;;5012233;28;20245;-41
2020/12/03 05:13:17;;;;;;;49.43;30.97;;;1.50;99.90;;;;;;5012337;28;20205;-41
2020/12/03 05:15:47;;;;;;;43.50;25.70;;;1.60;99.90;;;;;;5012380;28;20212;-41
2020/12/03 05:18:43;;;;;;;37.90;23.10;;;1.70;99.90;;;;;;5011687;28;20302;-41
2020/12/03 05:21:13;;;;;;;41.92;26.10;;;1.70;99.90;;;;;;5012227;28;20209;-40
2020/12/03 05:23:40;;;;;;;40.23;24.83;;;1.80;99.90;;;;;;5012252;28;20215;-42
2020/12/03 05:26:16;;;;;;;49.90;32.70;;;1.70;99.90;;;;;;5011777;28;20205;-43
2020/12/03 05:28:52;;;;;;;46.13;26.60;;;1.80;99.90;;;;;;5011935;28;20392;-43
2020/12/03 05:31:34;;;;;;;56.97;35.00;;;1.70;99.90;;;;;;5012323;28;20723;-42
2020/12/03 05:34:08;;;;;;;43.67;25.83;;;1.70;99.90;;;;;;5012332;28;20303;-44
2020/12/03 05:36:39;;;;;;;42.23;25.57;;;1.70;99.90;;;;;;5012304;28;20209;-45
2020/12/03 05:39:13;;;;;;;41.70;25.87;;;1.70;99.90;;;;;;5012095;28;20209;-43
2020/12/03 05:41:46;;;;;;;42.33;24.53;;;1.70;99.90;;;;;;5011909;28;20719;-42
2020/12/03 05:44:22;;;;;;;40.10;25.23;;;1.70;99.90;;;;;;5012245;28;20702;-41
2020/12/03 05:46:52;;;;;;;42.40;25.03;;;1.70;99.90;;;;;;5012184;28;20217;-42
2020/12/03 05:49:22;;;;;;;45.47;24.43;;;1.70;99.90;;;;;;5012164;28;20320;-41
2020/12/03 05:52:13;;;;;;;40.70;25.07;;;1.80;99.90;;;;;;5012355;28;20225;-47
2020/12/03 05:54:41;;;;;;;42.90;23.97;;;1.80;99.90;;;;;;5011999;28;20571;-43
2020/12/03 05:57:22;;;;;;;38.63;22.13;;;1.80;99.90;;;;;;5012156;28;20407;-37
2020/12/03 05:59:50;;;;;;;37.70;23.87;;;1.80;99.90;;;;;;5012001;28;20210;-40
2020/12/03 06:02:34;;;;;;;37.77;22.17;;;1.90;99.90;;;;;;5012065;28;20214;-40
2020/12/03 06:05:17;;;;;;;36.43;22.63;;;2.00;99.90;;;;;;5012068;28;20232;-41
2020/12/03 06:08:11;;;;;;;37.73;23.13;;;2.00;99.90;;;;;;5012073;28;20241;-41
2020/12/03 06:10:48;;;;;;;36.77;24.43;;;2.00;99.90;;;;;;5012123;28;20210;-41
2020/12/03 06:13:35;;;;;;;39.90;24.53;;;1.90;99.90;;;;;;5011758;28;20301;-42
2020/12/03 06:16:05;;;;;;;40.53;25.50;;;1.80;99.90;;;;;;5009555;28;20205;-42
2020/12/03 06:19:00;;;;;;;47.40;24.27;;;1.80;99.90;;;;;;5011693;28;20205;-41
2020/12/03 06:21:55;;;;;;;40.70;23.50;;;1.90;99.90;;;;;;5011788;28;20245;-43
2020/12/03 06:25:07;;;;;;;39.73;22.90;;;1.90;99.90;;;;;;5011574;28;20296;-41
2020/12/03 06:28:13;;;;;;;41.73;24.97;;;1.90;99.90;;;;;;5011587;28;20227;-43
2020/12/03 06:30:46;;;;;;;38.70;22.77;;;1.90;99.90;;;;;;4978250;28;20240;-41
2020/12/03 06:33:49;;;;;;;37.77;23.53;;;1.90;99.90;;;;;;5014936;28;20210;-43
2020/12/03 06:36:25;;;;;;;36.80;23.67;;;1.80;99.90;;;;;;5015131;28;20205;-41
2020/12/03 06:39:21;;;;;;;41.10;24.33;;;1.80;99.90;;;;;;5014980;28;20233;-41
2020/12/03 06:41:54;;;;;;;38.13;23.10;;;1.90;99.90;;;;;;5012704;28;20760;-41
2020/12/03 06:44:28;;;;;;;38.60;24.13;;;1.90;99.90;;;;;;5014703;28;20520;-44
2020/12/03 06:47:34;;;;;;;39.00;23.53;;;2.00;99.90;;;;;;5014983;28;20210;-41
2020/12/03 06:50:22;;;;;;;41.83;24.93;;;1.90;99.90;;;;;;4959422;28;20306;-42
2020/12/03 06:53:11;;;;;;;38.13;23.20;;;1.90;99.90;;;;;;5014572;28;20300;-41
2020/12/03 06:56:21;;;;;;;39.93;23.80;;;1.90;99.90;;;;;;5014654;28;20214;-41
2020/12/03 06:59:10;;;;;;;50.30;29.90;;;1.90;99.90;;;;;;5014638;28;20703;-41
2020/12/03 07:02:09;;;;;;;46.70;27.17;;;1.90;99.90;;;;;;5014797;28;20236;-41
2020/12/03 07:05:14;;;;;;;50.13;28.47;;;1.80;99.90;;;;;;5014372;28;20304;-41
2020/12/03 07:08:07;;;;;;;42.13;25.10;;;1.80;99.90;;;;;;5014343;28;20232;-42
2020/12/03 07:11:07;;;;;;;49.57;34.37;;;1.90;99.90;;;;;;5007874;28;20228;-42
2020/12/03 07:14:12;;;;;;;55.17;32.93;;;1.90;99.90;;;;;;5014444;28;20268;-41
2020/12/03 07:17:31;;;;;;;49.37;30.33;;;1.90;99.90;;;;;;4981101;28;20236;-42
2020/12/03 07:20:37;;;;;;;37.83;26.07;;;2.00;99.90;;;;;;5013998;28;20256;-41
2020/12/03 07:23:09;;;;;;;42.40;27.80;;;2.00;99.90;;;;;;4997515;28;20248;-43
2020/12/03 07:25:39;;;;;;;39.17;27.87;;;2.10;99.90;;;;;;5014154;28;20209;-43
2020/12/03 07:28:17;;;;;;;45.53;30.67;;;2.10;99.90;;;;;;5013942;28;20316;-41
2020/12/03 07:30:49;;;;;;;50.30;31.87;;;2.10;99.90;;;;;;5014126;28;20623;-42
2020/12/03 07:33:38;;;;;;;40.97;26.07;;;2.20;99.90;;;;;;5014539;28;20297;-44
2020/12/03 07:36:42;;;;;;;51.43;29.87;;;2.20;99.90;;;;;;5014492;28;20251;-43
2020/12/03 07:39:15;;;;;;;57.60;36.40;;;2.10;99.90;;;;;;4953437;29;20218;-42
2020/12/03 07:41:49;;;;;;;43.77;29.17;;;2.10;99.90;;;;;;4987908;28;20242;-41
2020/12/03 07:44:33;;;;;;;43.33;28.03;;;2.10;99.90;;;;;;4993977;28;20646;-42
2020/12/03 07:47:31;;;;;;;43.07;27.73;;;2.10;99.90;;;;;;4994356;28;20633;-41
2020/12/03 07:50:00;;;;;;;41.93;25.60;;;2.20;99.90;;;;;;4994106;28;20619;-41
2020/12/03 07:52:30;;;;;;;41.13;26.47;;;2.20;99.90;;;;;;4994296;28;20210;-41
2020/12/03 07:55:29;;;;;;;36.47;23.53;;;2.30;99.90;;;;;;4994111;28;20305;-42
2020/12/03 07:57:58;;;;;;;54.13;31.77;;;2.40;99.90;;;;;;4994441;28;20633;-41
2020/12/03 08:00:46;;;;;;;46.57;29.97;;;2.40;99.90;;;;;;4994480;28;20294;-42
2020/12/03 08:03:36;;;;;;;58.80;37.23;;;2.50;99.90;;;;;;4993811;28;20665;-42
2020/12/03 08:06:12;;;;;;;35.30;23.00;;;2.50;99.90;;;;;;4994079;28;20206;-44
2020/12/03 08:08:40;;;;;;;45.53;28.70;;;2.50;99.90;;;;;;4993814;28;20255;-42
2020/12/03 08:11:39;;;;;;;46.20;28.40;;;2.40;99.90;;;;;;4993474;28;20274;-42
2020/12/03 08:14:36;;;;;;;39.00;23.63;;;2.40;99.90;;;;;;4993828;28;20207;-41
2020/12/03 08:17:07;;;;;;;38.80;22.93;;;2.40;99.90;;;;;;4993635;28;20568;-41
2020/12/03 08:19:37;;;;;;;38.83;23.00;;;2.40;99.90;;;;;;4993540;28;20672;-43
2020/12/03 08:22:05;;;;;;;37.60;24.47;;;2.30;99.90;;;;;;4993893;28;20243;-41
2020/12/03 08:24:34;;;;;;;45.80;29.13;;;2.30;99.90;;;;;;4993355;28;20305;-42
2020/12/03 08:27:03;;;;;;;64.87;38.50;;;2.40;99.90;;;;;;4993423;28;20210;-42
2020/12/03 08:29:46;;;;;;;50.00;28.83;;;2.50;99.90;;;;;;4993352;28;20608;-40
2020/12/03 08:32:13;;;;;;;40.10;25.83;;;2.70;99.90;;;;;;4992805;28;20337;-41
2020/12/03 08:34:42;;;;;;;46.47;26.40;;;2.70;99.90;;;;;;4993305;28;20220;-41
2020/12/03 08:37:12;;;;;;;39.23;26.23;;;2.90;99.90;;;;;;4993339;28;20214;-42
2020/12/03 08:39:44;;;;;;;42.63;26.80;;;3.00;99.90;;;;;;5089358;23;20244;-42
2020/12/03 08:42:12;;;;;;;38.57;25.03;;;3.10;99.90;;;;;;5052528;28;20339;-42
2020/12/03 08:44:41;;;;;;;38.50;25.27;;;3.20;99.90;;;;;;5052465;28;20208;-43
2020/12/03 08:47:10;;;;;;;36.53;23.57;;;3.20;99.90;;;;;;5052516;28;20567;-43
2020/12/03 08:49:42;;;;;;;35.57;22.07;;;3.30;99.90;;;;;;5052218;28;20236;-44
2020/12/03 08:52:10;;;;;;;41.07;26.40;;;3.20;99.90;;;;;;5053117;28;20613;-42
2020/12/03 08:54:37;;;;;;;47.37;30.07;;;3.10;99.90;;;;;;5052037;28;20211;-41
2020/12/03 08:57:10;;;;;;;33.87;22.80;;;3.00;99.90;;;;;;5052491;28;20655;-41
2020/12/03 08:59:43;;;;;;;34.50;22.83;;;3.00;99.90;;;;;;5052325;28;20303;-44
2020/12/03 09:02:11;;;;;;;31.07;21.27;;;3.10;99.90;;;;;;5052359;28;20204;-41
2020/12/03 09:04:46;;;;;;;33.90;22.70;;;3.20;99.90;;;;;;5052216;28;20211;-44
2020/12/03 09:07:15;;;;;;;31.55;22.17;;;3.20;99.90;;;;;;5052185;28;20203;-42
2020/12/03 09:09:45;;;;;;;31.00;21.50;;;3.20;99.90;;;;;;5052423;28;20253;-43
2020/12/03 09:12:18;;;;;;;35.83;22.73;;;3.20;99.90;;;;;;5052758;28;20224;-43
2020/12/03 09:14:48;;;;;;;32.73;23.70;;;3.20;99.90;;;;;;5052361;28;20212;-43
2020/12/03 09:17:18;;;;;;;35.33;23.23;;;3.20;99.90;;;;;;5052025;28;20253;-42
2020/12/03 09:19:46;;;;;;;37.42;25.70;;;3.20;99.90;;;;;;5052112;28;20212;-42
2020/12/03 09:22:14;;;;;;;37.63;22.63;;;3.20;99.90;;;;;;5052539;28;20739;-43
2020/12/03 09:24:42;;;;;;;29.47;22.43;;;3.20;99.90;;;;;;5051889;28;20702;-44
2020/12/03 09:27:10;;;;;;;33.77;24.67;;;3.20;99.90;;;;;;5051952;28;20211;-44
2020/12/03 09:29:37;;;;;;;31.37;22.97;;;3.30;99.90;;;;;;5051801;28;20235;-42
2020/12/03 09:32:15;;;;;;;33.93;23.27;;;3.40;99.90;;;;;;5052139;28;20578;-42
2020/12/03 09:34:45;;;;;;;35.50;22.92;;;3.40;99.90;;;;;;5051904;28;20211;-41
2020/12/03 09:37:13;;;;;;;35.00;23.13;;;3.40;99.90;;;;;;5051857;28;20730;-42
2020/12/03 09:39:41;;;;;;;35.07;24.67;;;3.40;99.90;;;;;;5051862;28;20286;-42
2020/12/03 09:42:12;;;;;;;31.98;23.75;;;3.40;99.90;;;;;;5051681;28;20551;-43
2020/12/03 09:44:42;;;;;;;32.03;22.40;;;3.60;99.90;;;;;;5051967;28;20685;-40
2020/12/03 09:47:18;;;;;;;33.40;22.63;;;3.80;99.90;;;;;;5051669;28;20617;-44
2020/12/03 09:49:46;;;;;;;32.30;22.27;;;3.90;99.90;;;;;;5051478;28;20235;-39
2020/12/03 09:52:15;;;;;;;31.03;22.23;;;4.10;99.90;;;;;;5051670;28;20208;-39
2020/12/03 09:54:43;;;;;;;33.58;22.25;;;4.10;99.90;;;;;;5051272;28;20208;-39
2020/12/03 09:57:12;;;;;;;34.10;23.05;;;4.20;99.90;;;;;;5051439;28;20294;-39
2020/12/03 09:59:39;;;;;;;37.42;27.38;;;4.30;99.90;;;;;;5051681;28;20295;-40
2020/12/03 10:02:50;;;;;;;36.73;24.47;;;4.30;99.90;;;;;;5051664;28;20315;-39
2020/12/03 10:05:30;;;;;;;33.37;23.40;;;4.30;99.90;;;;;;5054237;28;20594;-40
2020/12/03 10:08:20;;;;;;;37.77;24.40;;;4.30;99.90;;;;;;5055594;28;20303;-39
2020/12/03 10:10:57;;;;;;;31.70;23.43;;;4.30;99.90;;;;;;5055395;28;20569;-40
2020/12/03 10:13:38;;;;;;;28.53;21.50;;;4.30;99.90;;;;;;5055444;28;20666;-41
2020/12/03 10:16:09;;;;;;;44.80;32.43;;;4.30;99.90;;;;;;5055929;28;20251;-41
2020/12/03 10:18:44;;;;;;;33.57;22.53;;;4.30;99.90;;;;;;5055822;28;20251;-42
2020/12/03 10:21:14;;;;;;;32.90;23.17;;;4.30;99.90;;;;;;5055443;28;20400;-41
2020/12/03 10:23:50;;;;;;;38.60;26.73;;;4.30;99.90;;;;;;5055454;28;20243;-42
2020/12/03 10:26:31;;;;;;;34.37;23.67;;;4.20;99.90;;;;;;5055310;28;20647;-43
2020/12/03 10:29:16;;;;;;;34.13;23.80;;;4.10;99.90;;;;;;5055096;28;20274;-49
2020/12/03 10:31:44;;;;;;;34.70;22.33;;;4.20;99.90;;;;;;5056497;28;20232;-43
2020/12/03 10:34:12;;;;;;;29.37;20.23;;;4.20;99.90;;;;;;5055124;28;20254;-42
2020/12/03 10:36:50;;;;;;;40.03;27.23;;;4.20;99.90;;;;;;5055584;28;20212;-43
2020/12/03 10:39:19;;;;;;;29.83;20.67;;;4.30;99.90;;;;;;5054606;28;20283;-42
2020/12/03 10:41:52;;;;;;;31.27;22.97;;;4.40;99.90;;;;;;5054900;28;20277;-41
2020/12/03 10:46:52;;;;;;;34.30;24.37;;;4.60;99.90;;;;;;4993895;28;20241;-43
2020/12/03 10:49:21;;;;;;;55.90;38.13;;;4.70;99.90;;;;;;4995172;28;20701;-46
2020/12/03 10:51:49;;;;;;;45.20;29.60;;;4.70;99.90;;;;;;4995329;28;20638;-46
2020/12/03 10:54:20;;;;;;;39.03;27.53;;;4.80;99.90;;;;;;4995382;28;20299;-46
2020/12/03 10:56:50;;;;;;;55.17;36.97;;;4.90;99.90;;;;;;4995355;28;20340;-44
2020/12/03 10:59:41;;;;;;;31.87;23.03;;;5.00;99.90;;;;;;4995223;28;20252;-45
2020/12/03 11:02:25;;;;;;;35.30;24.90;;;5.20;99.90;;;;;;4995161;28;20199;-44
2020/12/03 11:04:53;;;;;;;29.17;22.00;;;5.30;99.90;;;;;;4995165;28;20214;-39
2020/12/03 11:07:20;;;;;;;35.50;26.33;;;5.40;99.90;;;;;;4994939;28;20700;-40
2020/12/03 11:09:54;;;;;;;33.15;23.55;;;5.40;99.90;;;;;;4994782;28;20233;-40
2020/12/03 11:12:22;;;;;;;36.37;24.80;;;5.50;99.90;;;;;;4994901;28;20232;-43
2020/12/03 11:14:50;;;;;;;35.93;26.80;;;5.50;99.90;;;;;;4994724;28;20309;-44
2020/12/03 11:17:54;;;;;;;31.70;24.60;;;5.50;99.90;;;;;;4993919;28;20293;-43
2020/12/03 11:20:42;;;;;;;34.00;23.63;;;5.20;99.90;;;;;;4994528;28;20676;-44
2020/12/03 11:23:20;;;;;;;37.67;27.27;;;5.10;99.90;;;;;;4995056;28;20272;-41
2020/12/03 11:25:50;;;;;;;33.03;26.90;;;5.10;99.90;;;;;;4994715;28;20221;-43
2020/12/03 11:28:28;;;;;;;36.73;24.90;;;5.10;99.90;;;;;;4994391;28;20527;-41
2020/12/03 11:31:02;;;;;;;39.67;27.02;;;5.20;99.90;;;;;;4994559;28;20217;-41
2020/12/03 11:33:30;;;;;;;32.97;23.87;;;5.10;99.90;;;;;;4994391;28;20301;-41
2020/12/03 11:36:08;;;;;;;32.73;24.57;;;5.20;99.90;;;;;;4994481;28;20210;-41
2020/12/03 11:38:35;;;;;;;30.00;23.27;;;5.30;99.90;;;;;;4994429;28;20582;-41
2020/12/03 11:41:07;;;;;;;31.77;23.63;;;5.50;99.90;;;;;;4994452;28;20545;-39
2020/12/03 11:46:49;;;;;;;31.05;22.83;;;5.70;99.90;;;;;;4993022;28;20712;-40
2020/12/03 11:49:24;;;;;;;29.98;23.08;;;5.60;99.90;;;;;;4994257;28;20294;-40
2020/12/03 11:52:16;;;;;;;29.60;21.37;;;5.30;99.90;;;;;;4994039;28;20241;-40
2020/12/03 11:54:44;;;;;;;28.03;21.43;;;5.20;99.90;;;;;;4994206;28;20329;-40
2020/12/03 11:57:14;;;;;;;23.50;17.97;;;5.20;99.90;;;;;;4994094;28;20333;-40
2020/12/03 11:59:42;;;;;;;25.80;19.33;;;5.20;99.90;;;;;;4994169;28;20209;-41
2020/12/03 12:02:10;;;;;;;27.03;20.80;;;5.10;99.90;;;;;;4993962;28;20214;-41
2020/12/03 12:04:45;;;;;;;25.52;19.20;;;5.10;99.90;;;;;;4995217;28;20210;-41
2020/12/03 12:07:33;;;;;;;23.17;17.97;;;5.20;99.90;;;;;;4994397;28;20305;-43
2020/12/03 12:10:14;;;;;;;35.28;23.15;;;5.20;99.90;;;;;;4994220;28;20317;-41
2020/12/03 12:12:45;;;;;;;27.92;20.45;;;5.20;99.90;;;;;;4993979;28;20209;-43
2020/12/03 12:15:13;;;;;;;27.80;20.40;;;5.30;99.90;;;;;;4993984;28;20229;-42
2020/12/03 12:17:40;;;;;;;27.20;20.92;;;5.30;99.70;;;;;;4993901;28;20256;-40
2020/12/03 12:20:09;;;;;;;22.67;18.00;;;5.30;99.50;;;;;;4993752;28;20514;-42
2020/12/03 12:22:36;;;;;;;20.83;16.53;;;5.30;99.40;;;;;;4993989;28;20218;-41
2020/12/03 12:25:05;;;;;;;22.80;17.90;;;5.20;99.30;;;;;;4993924;28;20241;-44
2020/12/03 12:27:32;;;;;;;25.95;17.30;;;5.10;99.10;;;;;;4993281;28;20305;-41
2020/12/03 12:30:00;;;;;;;22.92;15.95;;;5.10;99.30;;;;;;4993627;28;20234;-41
2020/12/03 12:32:27;;;;;;;24.42;17.27;;;5.10;98.80;;;;;;4993786;28;20305;-41
2020/12/03 12:34:54;;;;;;;26.85;20.98;;;5.10;98.80;;;;;;4993729;28;20237;-41
2020/12/03 12:37:21;;;;;;;26.10;20.87;;;5.10;99.20;;;;;;4993550;28;20210;-43
2020/12/03 12:39:48;;;;;;;26.80;20.15;;;5.20;99.60;;;;;;4993522;28;20256;-44
2020/12/03 12:42:15;;;;;;;31.88;21.42;;;5.20;99.70;;;;;;4993198;28;20213;-41
2020/12/03 12:44:42;;;;;;;27.25;20.95;;;5.20;99.70;;;;;;4993073;28;20634;-41
2020/12/03 12:47:10;;;;;;;27.50;21.65;;;5.20;99.90;;;;;;4993353;28;20566;-42
2020/12/03 12:49:37;;;;;;;27.80;21.87;;;5.10;99.90;;;;;;4992965;28;20230;-40
2020/12/03 12:52:04;;;;;;;31.33;24.13;;;5.00;99.90;;;;;;4992846;28;20218;-42
2020/12/03 12:54:32;;;;;;;32.13;26.48;;;4.90;99.90;;;;;;4992917;28;20210;-41
2020/12/03 12:57:15;;;;;;;45.58;37.15;;;4.90;99.90;;;;;;4992929;28;20217;-42
2020/12/03 12:59:43;;;;;;;42.83;29.83;;;4.90;99.90;;;;;;4993137;28;20249;-41
2020/12/03 13:02:11;;;;;;;41.85;31.35;;;4.80;99.90;;;;;;4992972;28;20293;-41
2020/12/03 13:04:38;;;;;;;33.28;23.50;;;4.80;99.90;;;;;;4992795;28;20261;-40
2020/12/03 13:07:07;;;;;;;30.50;23.33;;;4.80;99.90;;;;;;4992708;28;20301;-43
2020/12/03 13:09:35;;;;;;;30.67;23.33;;;4.80;99.90;;;;;;4993023;28;20234;-42
2020/12/03 13:12:02;;;;;;;28.90;22.13;;;4.70;99.90;;;;;;4993340;28;20559;-41
2020/12/03 13:14:29;;;;;;;26.63;21.55;;;4.70;99.90;;;;;;4992865;28;20226;-40